sensor_id;sensor_type;location;lat;lon;timestamp;P1;durP1;ratioP1;P2;durP2;ratioP2
41309;SDS011;27057;51.438;-0.010;2023-12-22T00:02:22;41.55;;;6.30;;
41309;SDS011;27057;51.438;-0.010;2023-12-22T00:04:53;38.28;;;7.60;;
41309;SDS011;27057;51.438;-0.010;2023-12-22T00:07:20;46.50;;;6.82;;
41309;SDS011;27057;51.438;-0.010;2023-12-22T00:09:48;36.03;;;7.28;;
41309;SDS011;27057;51.438;-0.010;2023-12-22T00:12:15;36.25;;;5.63;;
41309;SDS011;27057;51.438;-0.010;2023-12-22T00:14:43;40.97;;;5.25;;
41309;SDS011;27057;51.438;-0.010;2023-12-22T00:17:10;35.10;;;5.70;;
41309;SDS011;27057;51.438;-0.010;2023-12-22T00:19:38;35.85;;;4.88;;
41309;SDS011;27057;51.438;-0.010;2023-12-22T00:22:06;37.40;;;4.90;;
41309;SDS011;27057;51.438;-0.010;2023-12-22T00:24:33;40.25;;;6.07;;
41309;SDS011;27057;51.438;-0.010;2023-12-22T00:27:00;46.63;;;5.82;;
41309;SDS011;27057;51.438;-0.010;2023-12-22T00:29:29;38.13;;;6.15;;
41309;SDS011;27057;51.438;-0.010;2023-12-22T00:31:57;40.22;;;6.90;;
41309;SDS011;27057;51.438;-0.010;2023-12-22T00:34:24;37.08;;;6.25;;
41309;SDS011;27057;51.438;-0.010;2023-12-22T00:36:51;27.27;;;4.90;;
41309;SDS011;27057;51.438;-0.010;2023-12-22T00:39:19;32.42;;;6.90;;
41309;SDS011;27057;51.438;-0.010;2023-12-22T00:41:46;35.80;;;6.30;;
41309;SDS011;27057;51.438;-0.010;2023-12-22T00:44:14;36.42;;;5.70;;
41309;SDS011;27057;51.438;-0.010;2023-12-22T00:46:41;44.67;;;8.23;;
41309;SDS011;27057;51.438;-0.010;2023-12-22T00:49:08;38.22;;;4.95;;
41309;SDS011;27057;51.438;-0.010;2023-12-22T00:51:36;36.13;;;6.82;;
41309;SDS011;27057;51.438;-0.010;2023-12-22T00:54:03;35.72;;;5.63;;
41309;SDS011;27057;51.438;-0.010;2023-12-22T00:56:31;31.05;;;5.20;;
41309;SDS011;27057;51.438;-0.010;2023-12-22T00:58:58;43.42;;;5.60;;
41309;SDS011;27057;51.438;-0.010;2023-12-22T01:01:37;36.30;;;4.63;;
41309;SDS011;27057;51.438;-0.010;2023-12-22T01:04:04;25.27;;;5.70;;
41309;SDS011;27057;51.438;-0.010;2023-12-22T01:06:32;29.42;;;4.35;;
41309;SDS011;27057;51.438;-0.010;2023-12-22T01:09:03;27.58;;;5.70;;
41309;SDS011;27057;51.438;-0.010;2023-12-22T01:11:32;26.70;;;4.82;;
41309;SDS011;27057;51.438;-0.010;2023-12-22T01:13:59;32.35;;;5.25;;
41309;SDS011;27057;51.438;-0.010;2023-12-22T01:16:27;24.30;;;4.30;;
41309;SDS011;27057;51.438;-0.010;2023-12-22T01:18:54;21.45;;;4.00;;
41309;SDS011;27057;51.438;-0.010;2023-12-22T01:21:22;21.52;;;3.45;;
41309;SDS011;27057;51.438;-0.010;2023-12-22T01:23:50;23.67;;;4.35;;
41309;SDS011;27057;51.438;-0.010;2023-12-22T01:26:18;23.65;;;3.70;;
41309;SDS011;27057;51.438;-0.010;2023-12-22T01:28:46;32.63;;;3.05;;
41309;SDS011;27057;51.438;-0.010;2023-12-22T01:31:13;26.27;;;4.93;;
41309;SDS011;27057;51.438;-0.010;2023-12-22T01:33:41;26.13;;;4.43;;
41309;SDS011;27057;51.438;-0.010;2023-12-22T01:36:09;18.85;;;3.03;;
41309;SDS011;27057;51.438;-0.010;2023-12-22T01:38:36;14.07;;;2.53;;
41309;SDS011;27057;51.438;-0.010;2023-12-22T01:41:03;16.23;;;2.60;;
41309;SDS011;27057;51.438;-0.010;2023-12-22T01:43:31;21.65;;;3.05;;
41309;SDS011;27057;51.438;-0.010;2023-12-22T01:45:59;11.75;;;2.10;;
41309;SDS011;27057;51.438;-0.010;2023-12-22T01:48:27;15.10;;;4.00;;
41309;SDS011;27057;51.438;-0.010;2023-12-22T01:50:56;6.88;;;1.80;;
41309;SDS011;27057;51.438;-0.010;2023-12-22T01:53:26;8.43;;;1.45;;
41309;SDS011;27057;51.438;-0.010;2023-12-22T01:55:54;8.00;;;1.65;;
41309;SDS011;27057;51.438;-0.010;2023-12-22T01:58:23;14.82;;;2.10;;
41309;SDS011;27057;51.438;-0.010;2023-12-22T02:00:52;6.18;;;1.13;;
41309;SDS011;27057;51.438;-0.010;2023-12-22T02:03:20;7.93;;;2.33;;
41309;SDS011;27057;51.438;-0.010;2023-12-22T02:05:48;5.20;;;1.30;;
41309;SDS011;27057;51.438;-0.010;2023-12-22T02:08:17;6.30;;;1.35;;
41309;SDS011;27057;51.438;-0.010;2023-12-22T02:10:45;9.52;;;1.58;;
41309;SDS011;27057;51.438;-0.010;2023-12-22T02:13:12;6.78;;;1.15;;
41309;SDS011;27057;51.438;-0.010;2023-12-22T02:15:40;5.45;;;1.30;;
41309;SDS011;27057;51.438;-0.010;2023-12-22T02:18:18;10.45;;;2.00;;
41309;SDS011;27057;51.438;-0.010;2023-12-22T02:20:50;11.10;;;1.40;;
41309;SDS011;27057;51.438;-0.010;2023-12-22T02:23:17;7.25;;;1.60;;
41309;SDS011;27057;51.438;-0.010;2023-12-22T02:25:48;12.00;;;1.58;;
41309;SDS011;27057;51.438;-0.010;2023-12-22T02:28:23;9.45;;;1.70;;
41309;SDS011;27057;51.438;-0.010;2023-12-22T02:33:27;8.57;;;1.95;;
41309;SDS011;27057;51.438;-0.010;2023-12-22T02:36:02;13.60;;;3.10;;
41309;SDS011;27057;51.438;-0.010;2023-12-22T02:38:31;18.90;;;2.78;;
41309;SDS011;27057;51.438;-0.010;2023-12-22T02:41:02;15.98;;;2.97;;
41309;SDS011;27057;51.438;-0.010;2023-12-22T02:43:30;22.95;;;4.50;;
41309;SDS011;27057;51.438;-0.010;2023-12-22T02:45:57;18.50;;;3.03;;
41309;SDS011;27057;51.438;-0.010;2023-12-22T02:48:24;16.40;;;2.63;;
41309;SDS011;27057;51.438;-0.010;2023-12-22T02:50:52;18.85;;;3.25;;
41309;SDS011;27057;51.438;-0.010;2023-12-22T02:53:19;12.93;;;2.63;;
41309;SDS011;27057;51.438;-0.010;2023-12-22T02:55:47;23.63;;;2.75;;
41309;SDS011;27057;51.438;-0.010;2023-12-22T02:58:14;17.55;;;2.75;;
41309;SDS011;27057;51.438;-0.010;2023-12-22T03:00:42;8.13;;;1.60;;
41309;SDS011;27057;51.438;-0.010;2023-12-22T03:03:10;12.98;;;2.45;;
41309;SDS011;27057;51.438;-0.010;2023-12-22T03:05:38;25.40;;;3.67;;
41309;SDS011;27057;51.438;-0.010;2023-12-22T03:08:05;19.55;;;3.03;;
41309;SDS011;27057;51.438;-0.010;2023-12-22T03:10:33;21.85;;;3.10;;
41309;SDS011;27057;51.438;-0.010;2023-12-22T03:13:00;20.02;;;2.65;;
41309;SDS011;27057;51.438;-0.010;2023-12-22T03:15:28;13.15;;;3.08;;
41309;SDS011;27057;51.438;-0.010;2023-12-22T03:17:55;10.85;;;1.95;;
41309;SDS011;27057;51.438;-0.010;2023-12-22T03:20:23;9.77;;;2.15;;
41309;SDS011;27057;51.438;-0.010;2023-12-22T03:22:50;18.67;;;3.72;;
41309;SDS011;27057;51.438;-0.010;2023-12-22T03:25:18;17.80;;;3.13;;
41309;SDS011;27057;51.438;-0.010;2023-12-22T03:27:46;22.98;;;3.08;;
41309;SDS011;27057;51.438;-0.010;2023-12-22T03:30:14;17.42;;;4.15;;
41309;SDS011;27057;51.438;-0.010;2023-12-22T03:32:41;11.23;;;2.17;;
41309;SDS011;27057;51.438;-0.010;2023-12-22T03:35:09;12.75;;;2.50;;
41309;SDS011;27057;51.438;-0.010;2023-12-22T03:37:36;17.77;;;2.28;;
41309;SDS011;27057;51.438;-0.010;2023-12-22T03:40:03;10.95;;;2.33;;
41309;SDS011;27057;51.438;-0.010;2023-12-22T03:42:32;10.40;;;1.83;;
41309;SDS011;27057;51.438;-0.010;2023-12-22T03:44:59;10.85;;;1.92;;
41309;SDS011;27057;51.438;-0.010;2023-12-22T03:47:27;10.43;;;2.50;;
41309;SDS011;27057;51.438;-0.010;2023-12-22T03:49:54;14.63;;;1.98;;
41309;SDS011;27057;51.438;-0.010;2023-12-22T03:52:21;13.57;;;2.30;;
41309;SDS011;27057;51.438;-0.010;2023-12-22T03:54:49;5.78;;;1.50;;
41309;SDS011;27057;51.438;-0.010;2023-12-22T03:57:16;9.48;;;2.25;;
41309;SDS011;27057;51.438;-0.010;2023-12-22T03:59:43;9.80;;;2.88;;
41309;SDS011;27057;51.438;-0.010;2023-12-22T04:02:11;9.98;;;1.77;;
41309;SDS011;27057;51.438;-0.010;2023-12-22T04:04:38;7.07;;;1.30;;
41309;SDS011;27057;51.438;-0.010;2023-12-22T04:07:06;16.02;;;2.25;;
41309;SDS011;27057;51.438;-0.010;2023-12-22T04:09:36;4.30;;;1.48;;
41309;SDS011;27057;51.438;-0.010;2023-12-22T04:12:05;8.85;;;1.70;;
41309;SDS011;27057;51.438;-0.010;2023-12-22T04:14:32;12.45;;;1.40;;
41309;SDS011;27057;51.438;-0.010;2023-12-22T04:17:00;3.47;;;1.38;;
41309;SDS011;27057;51.438;-0.010;2023-12-22T04:19:27;11.45;;;1.67;;
41309;SDS011;27057;51.438;-0.010;2023-12-22T04:21:55;3.42;;;1.02;;
41309;SDS011;27057;51.438;-0.010;2023-12-22T04:24:23;10.48;;;2.10;;
41309;SDS011;27057;51.438;-0.010;2023-12-22T04:26:50;3.08;;;0.80;;
41309;SDS011;27057;51.438;-0.010;2023-12-22T04:29:17;5.60;;;0.90;;
41309;SDS011;27057;51.438;-0.010;2023-12-22T04:31:45;3.90;;;0.68;;
41309;SDS011;27057;51.438;-0.010;2023-12-22T04:34:13;6.93;;;1.45;;
41309;SDS011;27057;51.438;-0.010;2023-12-22T04:36:41;4.15;;;1.67;;
41309;SDS011;27057;51.438;-0.010;2023-12-22T04:39:09;11.00;;;1.70;;
41309;SDS011;27057;51.438;-0.010;2023-12-22T04:41:36;11.23;;;1.88;;
41309;SDS011;27057;51.438;-0.010;2023-12-22T04:44:04;6.00;;;1.55;;
41309;SDS011;27057;51.438;-0.010;2023-12-22T04:46:31;4.07;;;0.80;;
41309;SDS011;27057;51.438;-0.010;2023-12-22T04:48:59;2.50;;;0.80;;
41309;SDS011;27057;51.438;-0.010;2023-12-22T04:51:27;5.03;;;0.90;;
41309;SDS011;27057;51.438;-0.010;2023-12-22T04:53:54;4.53;;;1.00;;
41309;SDS011;27057;51.438;-0.010;2023-12-22T04:56:22;3.70;;;1.33;;
41309;SDS011;27057;51.438;-0.010;2023-12-22T04:58:50;7.35;;;1.20;;
41309;SDS011;27057;51.438;-0.010;2023-12-22T05:01:18;5.22;;;1.10;;
41309;SDS011;27057;51.438;-0.010;2023-12-22T05:03:46;3.42;;;0.82;;
41309;SDS011;27057;51.438;-0.010;2023-12-22T05:06:13;4.32;;;1.25;;
41309;SDS011;27057;51.438;-0.010;2023-12-22T05:08:41;6.88;;;1.02;;
41309;SDS011;27057;51.438;-0.010;2023-12-22T05:11:08;3.60;;;1.15;;
41309;SDS011;27057;51.438;-0.010;2023-12-22T05:13:36;11.18;;;1.38;;
41309;SDS011;27057;51.438;-0.010;2023-12-22T05:16:04;5.30;;;1.00;;
41309;SDS011;27057;51.438;-0.010;2023-12-22T05:18:31;4.97;;;0.90;;
41309;SDS011;27057;51.438;-0.010;2023-12-22T05:20:59;5.35;;;0.88;;
41309;SDS011;27057;51.438;-0.010;2023-12-22T05:23:27;6.65;;;1.10;;
41309;SDS011;27057;51.438;-0.010;2023-12-22T05:25:54;4.07;;;0.90;;
41309;SDS011;27057;51.438;-0.010;2023-12-22T05:28:22;1.23;;;0.68;;
41309;SDS011;27057;51.438;-0.010;2023-12-22T05:30:49;6.18;;;2.47;;
41309;SDS011;27057;51.438;-0.010;2023-12-22T05:33:18;9.80;;;0.90;;
41309;SDS011;27057;51.438;-0.010;2023-12-22T05:35:45;6.43;;;0.93;;
41309;SDS011;27057;51.438;-0.010;2023-12-22T05:38:13;1.90;;;1.02;;
41309;SDS011;27057;51.438;-0.010;2023-12-22T05:40:40;2.85;;;0.85;;
41309;SDS011;27057;51.438;-0.010;2023-12-22T05:43:08;4.70;;;1.33;;
41309;SDS011;27057;51.438;-0.010;2023-12-22T05:45:35;1.63;;;0.70;;
41309;SDS011;27057;51.438;-0.010;2023-12-22T05:48:03;2.40;;;0.88;;
41309;SDS011;27057;51.438;-0.010;2023-12-22T05:50:31;3.22;;;0.60;;
41309;SDS011;27057;51.438;-0.010;2023-12-22T05:52:59;1.33;;;0.60;;
41309;SDS011;27057;51.438;-0.010;2023-12-22T05:55:26;3.45;;;0.70;;
41309;SDS011;27057;51.438;-0.010;2023-12-22T05:57:53;0.95;;;0.60;;
41309;SDS011;27057;51.438;-0.010;2023-12-22T06:00:22;4.85;;;0.60;;
41309;SDS011;27057;51.438;-0.010;2023-12-22T06:02:49;2.35;;;0.80;;
41309;SDS011;27057;51.438;-0.010;2023-12-22T06:05:17;2.47;;;0.90;;
41309;SDS011;27057;51.438;-0.010;2023-12-22T06:07:44;7.18;;;1.08;;
41309;SDS011;27057;51.438;-0.010;2023-12-22T06:10:12;2.97;;;0.65;;
41309;SDS011;27057;51.438;-0.010;2023-12-22T06:12:39;3.80;;;1.10;;
41309;SDS011;27057;51.438;-0.010;2023-12-22T06:15:07;1.70;;;0.63;;
41309;SDS011;27057;51.438;-0.010;2023-12-22T06:17:34;4.25;;;1.08;;
41309;SDS011;27057;51.438;-0.010;2023-12-22T06:20:02;6.65;;;0.60;;
41309;SDS011;27057;51.438;-0.010;2023-12-22T06:22:30;4.85;;;1.00;;
41309;SDS011;27057;51.438;-0.010;2023-12-22T06:24:57;9.27;;;1.48;;
41309;SDS011;27057;51.438;-0.010;2023-12-22T06:27:25;8.57;;;1.13;;
41309;SDS011;27057;51.438;-0.010;2023-12-22T06:29:52;7.47;;;1.00;;
41309;SDS011;27057;51.438;-0.010;2023-12-22T06:32:22;6.05;;;1.05;;
41309;SDS011;27057;51.438;-0.010;2023-12-22T06:34:50;2.00;;;0.50;;
41309;SDS011;27057;51.438;-0.010;2023-12-22T06:37:17;10.48;;;2.78;;
41309;SDS011;27057;51.438;-0.010;2023-12-22T06:39:46;11.70;;;0.90;;
41309;SDS011;27057;51.438;-0.010;2023-12-22T06:42:13;16.58;;;1.25;;
41309;SDS011;27057;51.438;-0.010;2023-12-22T06:44:44;2.83;;;1.00;;
41309;SDS011;27057;51.438;-0.010;2023-12-22T06:47:11;7.72;;;1.08;;
41309;SDS011;27057;51.438;-0.010;2023-12-22T06:49:39;1.60;;;1.00;;
41309;SDS011;27057;51.438;-0.010;2023-12-22T06:52:06;30.38;;;3.47;;
41309;SDS011;27057;51.438;-0.010;2023-12-22T06:54:34;3.92;;;2.08;;
41309;SDS011;27057;51.438;-0.010;2023-12-22T06:57:01;2.53;;;0.80;;
41309;SDS011;27057;51.438;-0.010;2023-12-22T06:59:28;10.70;;;1.33;;
41309;SDS011;27057;51.438;-0.010;2023-12-22T07:01:58;7.57;;;1.17;;
41309;SDS011;27057;51.438;-0.010;2023-12-22T07:04:41;2.05;;;0.60;;
41309;SDS011;27057;51.438;-0.010;2023-12-22T07:07:27;2.50;;;0.98;;
41309;SDS011;27057;51.438;-0.010;2023-12-22T07:09:55;3.13;;;0.75;;
41309;SDS011;27057;51.438;-0.010;2023-12-22T07:12:22;2.95;;;0.90;;
41309;SDS011;27057;51.438;-0.010;2023-12-22T07:14:49;2.05;;;0.88;;
41309;SDS011;27057;51.438;-0.010;2023-12-22T07:17:17;3.67;;;0.73;;
41309;SDS011;27057;51.438;-0.010;2023-12-22T07:19:44;7.88;;;1.27;;
41309;SDS011;27057;51.438;-0.010;2023-12-22T07:22:12;0.93;;;0.50;;
41309;SDS011;27057;51.438;-0.010;2023-12-22T07:24:39;1.92;;;0.85;;
41309;SDS011;27057;51.438;-0.010;2023-12-22T07:27:06;1.08;;;0.60;;
41309;SDS011;27057;51.438;-0.010;2023-12-22T07:29:34;2.17;;;0.90;;
41309;SDS011;27057;51.438;-0.010;2023-12-22T07:32:01;4.38;;;0.82;;
41309;SDS011;27057;51.438;-0.010;2023-12-22T07:34:29;0.45;;;0.30;;
41309;SDS011;27057;51.438;-0.010;2023-12-22T07:36:56;9.35;;;0.73;;
41309;SDS011;27057;51.438;-0.010;2023-12-22T07:39:32;3.00;;;0.97;;
41309;SDS011;27057;51.438;-0.010;2023-12-22T07:42:03;3.47;;;0.80;;
41309;SDS011;27057;51.438;-0.010;2023-12-22T07:44:31;3.53;;;0.90;;
41309;SDS011;27057;51.438;-0.010;2023-12-22T07:47:00;1.33;;;0.65;;
41309;SDS011;27057;51.438;-0.010;2023-12-22T07:49:29;1.38;;;0.60;;
41309;SDS011;27057;51.438;-0.010;2023-12-22T07:51:59;1.17;;;0.60;;
41309;SDS011;27057;51.438;-0.010;2023-12-22T07:54:28;4.80;;;0.70;;
41309;SDS011;27057;51.438;-0.010;2023-12-22T07:56:56;2.63;;;0.70;;
41309;SDS011;27057;51.438;-0.010;2023-12-22T07:59:23;1.23;;;1.10;;
41309;SDS011;27057;51.438;-0.010;2023-12-22T08:01:57;3.08;;;1.20;;
41309;SDS011;27057;51.438;-0.010;2023-12-22T08:04:26;3.92;;;1.15;;
41309;SDS011;27057;51.438;-0.010;2023-12-22T08:06:54;2.95;;;0.52;;
41309;SDS011;27057;51.438;-0.010;2023-12-22T08:09:22;3.65;;;0.80;;
41309;SDS011;27057;51.438;-0.010;2023-12-22T08:11:49;4.80;;;0.75;;
41309;SDS011;27057;51.438;-0.010;2023-12-22T08:14:20;1.58;;;0.63;;
41309;SDS011;27057;51.438;-0.010;2023-12-22T08:16:47;1.42;;;0.60;;
41309;SDS011;27057;51.438;-0.010;2023-12-22T08:19:16;1.42;;;0.50;;
41309;SDS011;27057;51.438;-0.010;2023-12-22T08:21:43;1.70;;;0.75;;
41309;SDS011;27057;51.438;-0.010;2023-12-22T08:24:13;2.78;;;0.50;;
41309;SDS011;27057;51.438;-0.010;2023-12-22T08:26:51;5.82;;;0.70;;
41309;SDS011;27057;51.438;-0.010;2023-12-22T08:29:19;2.78;;;0.60;;
41309;SDS011;27057;51.438;-0.010;2023-12-22T08:31:47;1.67;;;0.70;;
41309;SDS011;27057;51.438;-0.010;2023-12-22T08:34:14;1.98;;;0.70;;
41309;SDS011;27057;51.438;-0.010;2023-12-22T08:36:42;5.45;;;1.20;;
41309;SDS011;27057;51.438;-0.010;2023-12-22T08:39:11;3.58;;;1.13;;
41309;SDS011;27057;51.438;-0.010;2023-12-22T08:41:39;2.20;;;0.80;;
41309;SDS011;27057;51.438;-0.010;2023-12-22T08:44:07;4.50;;;0.63;;
41309;SDS011;27057;51.438;-0.010;2023-12-22T08:46:35;1.20;;;0.63;;
41309;SDS011;27057;51.438;-0.010;2023-12-22T08:49:03;4.03;;;1.20;;
41309;SDS011;27057;51.438;-0.010;2023-12-22T08:51:31;5.70;;;0.68;;
41309;SDS011;27057;51.438;-0.010;2023-12-22T08:53:58;4.97;;;0.73;;
41309;SDS011;27057;51.438;-0.010;2023-12-22T08:56:26;3.97;;;1.13;;
41309;SDS011;27057;51.438;-0.010;2023-12-22T08:58:54;8.27;;;0.73;;
41309;SDS011;27057;51.438;-0.010;2023-12-22T09:01:22;2.25;;;0.73;;
41309;SDS011;27057;51.438;-0.010;2023-12-22T09:03:50;4.35;;;1.42;;
41309;SDS011;27057;51.438;-0.010;2023-12-22T09:06:21;3.72;;;2.25;;
41309;SDS011;27057;51.438;-0.010;2023-12-22T09:08:49;16.17;;;1.05;;
41309;SDS011;27057;51.438;-0.010;2023-12-22T09:11:18;1.42;;;0.50;;
41309;SDS011;27057;51.438;-0.010;2023-12-22T09:13:46;3.13;;;0.40;;
41309;SDS011;27057;51.438;-0.010;2023-12-22T09:16:16;3.45;;;0.60;;
41309;SDS011;27057;51.438;-0.010;2023-12-22T09:18:48;2.92;;;0.80;;
41309;SDS011;27057;51.438;-0.010;2023-12-22T09:21:17;5.55;;;1.33;;
41309;SDS011;27057;51.438;-0.010;2023-12-22T09:23:45;3.63;;;0.65;;
41309;SDS011;27057;51.438;-0.010;2023-12-22T09:26:13;6.20;;;0.85;;
41309;SDS011;27057;51.438;-0.010;2023-12-22T09:28:42;4.20;;;1.02;;
41309;SDS011;27057;51.438;-0.010;2023-12-22T09:31:09;7.22;;;1.00;;
41309;SDS011;27057;51.438;-0.010;2023-12-22T09:33:37;3.08;;;1.52;;
41309;SDS011;27057;51.438;-0.010;2023-12-22T09:36:05;3.63;;;0.80;;
41309;SDS011;27057;51.438;-0.010;2023-12-22T09:38:33;4.78;;;0.88;;
41309;SDS011;27057;51.438;-0.010;2023-12-22T09:41:01;4.03;;;0.80;;
41309;SDS011;27057;51.438;-0.010;2023-12-22T09:43:28;4.70;;;1.02;;
41309;SDS011;27057;51.438;-0.010;2023-12-22T09:45:57;3.08;;;0.88;;
41309;SDS011;27057;51.438;-0.010;2023-12-22T09:48:26;5.57;;;1.13;;
41309;SDS011;27057;51.438;-0.010;2023-12-22T09:50:55;1.33;;;0.45;;
41309;SDS011;27057;51.438;-0.010;2023-12-22T09:53:22;5.85;;;0.82;;
41309;SDS011;27057;51.438;-0.010;2023-12-22T09:55:51;1.40;;;1.25;;
41309;SDS011;27057;51.438;-0.010;2023-12-22T09:58:21;6.07;;;1.33;;
41309;SDS011;27057;51.438;-0.010;2023-12-22T10:00:49;8.25;;;1.15;;
41309;SDS011;27057;51.438;-0.010;2023-12-22T10:03:19;6.32;;;1.15;;
41309;SDS011;27057;51.438;-0.010;2023-12-22T10:05:48;7.07;;;1.10;;
41309;SDS011;27057;51.438;-0.010;2023-12-22T10:08:15;8.18;;;0.82;;
41309;SDS011;27057;51.438;-0.010;2023-12-22T10:10:46;0.85;;;0.45;;
41309;SDS011;27057;51.438;-0.010;2023-12-22T10:13:14;8.73;;;0.90;;
41309;SDS011;27057;51.438;-0.010;2023-12-22T10:15:42;2.10;;;0.65;;
41309;SDS011;27057;51.438;-0.010;2023-12-22T10:18:12;3.33;;;1.00;;
41309;SDS011;27057;51.438;-0.010;2023-12-22T10:20:40;3.95;;;0.75;;
41309;SDS011;27057;51.438;-0.010;2023-12-22T10:23:08;5.25;;;1.15;;
41309;SDS011;27057;51.438;-0.010;2023-12-22T10:25:36;7.05;;;0.90;;
41309;SDS011;27057;51.438;-0.010;2023-12-22T10:28:09;5.10;;;0.90;;
41309;SDS011;27057;51.438;-0.010;2023-12-22T10:30:38;7.43;;;1.33;;
41309;SDS011;27057;51.438;-0.010;2023-12-22T10:33:07;6.63;;;1.35;;
41309;SDS011;27057;51.438;-0.010;2023-12-22T10:35:35;2.65;;;0.82;;
41309;SDS011;27057;51.438;-0.010;2023-12-22T10:38:03;0.98;;;0.70;;
41309;SDS011;27057;51.438;-0.010;2023-12-22T10:40:31;5.10;;;0.60;;
41309;SDS011;27057;51.438;-0.010;2023-12-22T10:42:59;5.57;;;1.08;;
41309;SDS011;27057;51.438;-0.010;2023-12-22T10:45:27;12.73;;;1.15;;
41309;SDS011;27057;51.438;-0.010;2023-12-22T10:47:57;2.42;;;0.80;;
41309;SDS011;27057;51.438;-0.010;2023-12-22T10:50:26;6.78;;;1.17;;
41309;SDS011;27057;51.438;-0.010;2023-12-22T10:52:55;5.13;;;1.15;;
41309;SDS011;27057;51.438;-0.010;2023-12-22T10:55:23;6.95;;;0.93;;
41309;SDS011;27057;51.438;-0.010;2023-12-22T10:57:51;13.25;;;1.35;;
41309;SDS011;27057;51.438;-0.010;2023-12-22T11:00:21;6.68;;;0.88;;
41309;SDS011;27057;51.438;-0.010;2023-12-22T11:02:50;12.90;;;1.27;;
41309;SDS011;27057;51.438;-0.010;2023-12-22T11:05:25;3.63;;;0.80;;
41309;SDS011;27057;51.438;-0.010;2023-12-22T11:07:55;7.10;;;1.52;;
41309;SDS011;27057;51.438;-0.010;2023-12-22T11:10:30;6.90;;;1.25;;
41309;SDS011;27057;51.438;-0.010;2023-12-22T11:12:59;1.80;;;0.73;;
41309;SDS011;27057;51.438;-0.010;2023-12-22T11:15:27;9.48;;;1.60;;
41309;SDS011;27057;51.438;-0.010;2023-12-22T11:17:55;7.57;;;2.13;;
41309;SDS011;27057;51.438;-0.010;2023-12-22T11:20:25;6.82;;;1.83;;
41309;SDS011;27057;51.438;-0.010;2023-12-22T11:22:53;5.40;;;1.42;;
41309;SDS011;27057;51.438;-0.010;2023-12-22T11:25:24;9.88;;;1.60;;
41309;SDS011;27057;51.438;-0.010;2023-12-22T11:27:53;7.25;;;1.27;;
41309;SDS011;27057;51.438;-0.010;2023-12-22T11:30:22;10.07;;;1.98;;
41309;SDS011;27057;51.438;-0.010;2023-12-22T11:32:53;4.55;;;1.17;;
41309;SDS011;27057;51.438;-0.010;2023-12-22T11:35:21;8.80;;;1.77;;
41309;SDS011;27057;51.438;-0.010;2023-12-22T11:38:00;14.50;;;0.98;;
41309;SDS011;27057;51.438;-0.010;2023-12-22T11:40:29;4.65;;;1.25;;
41309;SDS011;27057;51.438;-0.010;2023-12-22T11:42:56;4.78;;;1.23;;
41309;SDS011;27057;51.438;-0.010;2023-12-22T11:45:24;9.80;;;1.30;;
41309;SDS011;27057;51.438;-0.010;2023-12-22T11:47:52;3.50;;;0.98;;
41309;SDS011;27057;51.438;-0.010;2023-12-22T11:50:30;7.85;;;0.93;;
41309;SDS011;27057;51.438;-0.010;2023-12-22T11:53:16;4.75;;;1.75;;
41309;SDS011;27057;51.438;-0.010;2023-12-22T11:56:03;4.63;;;0.90;;
41309;SDS011;27057;51.438;-0.010;2023-12-22T11:58:33;6.82;;;0.98;;
41309;SDS011;27057;51.438;-0.010;2023-12-22T12:03:37;4.88;;;1.60;;
41309;SDS011;27057;51.438;-0.010;2023-12-22T12:08:54;6.35;;;0.88;;
41309;SDS011;27057;51.438;-0.010;2023-12-22T12:11:22;3.88;;;1.20;;
41309;SDS011;27057;51.438;-0.010;2023-12-22T12:13:50;4.70;;;1.08;;
41309;SDS011;27057;51.438;-0.010;2023-12-22T12:16:18;5.10;;;1.17;;
41309;SDS011;27057;51.438;-0.010;2023-12-22T12:18:50;6.80;;;1.50;;
41309;SDS011;27057;51.438;-0.010;2023-12-22T12:21:20;12.05;;;1.30;;
41309;SDS011;27057;51.438;-0.010;2023-12-22T12:23:47;4.00;;;1.00;;
41309;SDS011;27057;51.438;-0.010;2023-12-22T12:26:16;3.13;;;1.05;;
41309;SDS011;27057;51.438;-0.010;2023-12-22T12:28:45;4.97;;;1.50;;
41309;SDS011;27057;51.438;-0.010;2023-12-22T12:31:14;10.93;;;1.98;;
41309;SDS011;27057;51.438;-0.010;2023-12-22T12:33:41;8.90;;;1.15;;
41309;SDS011;27057;51.438;-0.010;2023-12-22T12:36:10;5.40;;;0.93;;
41309;SDS011;27057;51.438;-0.010;2023-12-22T12:38:42;4.18;;;1.55;;
41309;SDS011;27057;51.438;-0.010;2023-12-22T12:41:15;5.70;;;1.27;;
41309;SDS011;27057;51.438;-0.010;2023-12-22T12:43:42;5.53;;;1.58;;
41309;SDS011;27057;51.438;-0.010;2023-12-22T12:46:10;6.72;;;1.80;;
41309;SDS011;27057;51.438;-0.010;2023-12-22T12:48:38;8.05;;;1.88;;
41309;SDS011;27057;51.438;-0.010;2023-12-22T12:51:06;10.45;;;1.67;;
41309;SDS011;27057;51.438;-0.010;2023-12-22T12:53:36;9.48;;;1.27;;
41309;SDS011;27057;51.438;-0.010;2023-12-22T12:56:04;10.70;;;2.40;;
41309;SDS011;27057;51.438;-0.010;2023-12-22T12:58:32;8.48;;;1.20;;
41309;SDS011;27057;51.438;-0.010;2023-12-22T13:01:03;4.30;;;0.88;;
41309;SDS011;27057;51.438;-0.010;2023-12-22T13:03:51;7.18;;;1.20;;
41309;SDS011;27057;51.438;-0.010;2023-12-22T13:06:22;4.90;;;1.15;;
41309;SDS011;27057;51.438;-0.010;2023-12-22T13:08:49;6.03;;;1.35;;
41309;SDS011;27057;51.438;-0.010;2023-12-22T13:11:36;3.95;;;1.60;;
41309;SDS011;27057;51.438;-0.010;2023-12-22T13:14:06;6.90;;;1.05;;
41309;SDS011;27057;51.438;-0.010;2023-12-22T13:16:34;7.90;;;1.27;;
41309;SDS011;27057;51.438;-0.010;2023-12-22T13:19:02;6.25;;;1.25;;
41309;SDS011;27057;51.438;-0.010;2023-12-22T13:21:30;7.70;;;1.40;;
41309;SDS011;27057;51.438;-0.010;2023-12-22T13:26:43;5.78;;;1.17;;
41309;SDS011;27057;51.438;-0.010;2023-12-22T13:29:11;7.25;;;1.35;;
41309;SDS011;27057;51.438;-0.010;2023-12-22T13:31:40;6.63;;;1.45;;
41309;SDS011;27057;51.438;-0.010;2023-12-22T13:34:10;6.93;;;1.63;;
41309;SDS011;27057;51.438;-0.010;2023-12-22T13:36:38;2.60;;;1.02;;
41309;SDS011;27057;51.438;-0.010;2023-12-22T13:39:09;3.50;;;1.20;;
41309;SDS011;27057;51.438;-0.010;2023-12-22T13:41:41;8.45;;;1.40;;
41309;SDS011;27057;51.438;-0.010;2023-12-22T13:44:12;9.05;;;1.63;;
41309;SDS011;27057;51.438;-0.010;2023-12-22T13:46:41;3.50;;;1.05;;
41309;SDS011;27057;51.438;-0.010;2023-12-22T13:49:10;10.85;;;1.60;;
41309;SDS011;27057;51.438;-0.010;2023-12-22T13:51:38;5.97;;;1.45;;
41309;SDS011;27057;51.438;-0.010;2023-12-22T13:54:09;6.53;;;1.35;;
41309;SDS011;27057;51.438;-0.010;2023-12-22T13:56:38;8.95;;;1.63;;
41309;SDS011;27057;51.438;-0.010;2023-12-22T13:59:10;10.23;;;1.55;;
41309;SDS011;27057;51.438;-0.010;2023-12-22T14:01:38;11.88;;;1.67;;
41309;SDS011;27057;51.438;-0.010;2023-12-22T14:04:07;5.63;;;1.33;;
41309;SDS011;27057;51.438;-0.010;2023-12-22T14:06:37;6.07;;;1.27;;
41309;SDS011;27057;51.438;-0.010;2023-12-22T14:09:04;6.70;;;1.63;;
41309;SDS011;27057;51.438;-0.010;2023-12-22T14:11:32;4.95;;;1.30;;
41309;SDS011;27057;51.438;-0.010;2023-12-22T14:13:59;4.60;;;1.30;;
41309;SDS011;27057;51.438;-0.010;2023-12-22T14:16:27;4.07;;;1.25;;
41309;SDS011;27057;51.438;-0.010;2023-12-22T14:18:55;5.82;;;1.45;;
41309;SDS011;27057;51.438;-0.010;2023-12-22T14:21:23;13.85;;;1.90;;
41309;SDS011;27057;51.438;-0.010;2023-12-22T14:23:50;6.80;;;1.38;;
41309;SDS011;27057;51.438;-0.010;2023-12-22T14:26:17;7.43;;;2.20;;
41309;SDS011;27057;51.438;-0.010;2023-12-22T14:28:45;10.00;;;1.67;;
41309;SDS011;27057;51.438;-0.010;2023-12-22T14:31:17;4.90;;;1.52;;
41309;SDS011;27057;51.438;-0.010;2023-12-22T14:33:44;3.65;;;0.95;;
41309;SDS011;27057;51.438;-0.010;2023-12-22T14:36:12;8.07;;;1.25;;
41309;SDS011;27057;51.438;-0.010;2023-12-22T14:38:39;4.20;;;1.05;;
41309;SDS011;27057;51.438;-0.010;2023-12-22T14:41:06;6.60;;;2.10;;
41309;SDS011;27057;51.438;-0.010;2023-12-22T14:43:36;6.38;;;1.60;;
41309;SDS011;27057;51.438;-0.010;2023-12-22T14:46:04;6.78;;;1.30;;
41309;SDS011;27057;51.438;-0.010;2023-12-22T14:48:32;9.65;;;2.30;;
41309;SDS011;27057;51.438;-0.010;2023-12-22T14:51:00;6.35;;;1.13;;